sensor_id;sensor_type;location;lat;lon;timestamp;P1;durP1;ratioP1;P2;durP2;ratioP2
70052;SDS011;57398;52.032;4.376;2023-07-22T00:00:14;14.23;;;4.22;;
70052;SDS011;57398;52.032;4.376;2023-07-22T00:03:03;12.90;;;4.75;;
70052;SDS011;57398;52.032;4.376;2023-07-22T00:06:01;9.95;;;4.00;;
70052;SDS011;57398;52.032;4.376;2023-07-22T00:08:50;11.88;;;4.18;;
70052;SDS011;57398;52.032;4.376;2023-07-22T00:11:38;11.23;;;3.77;;
70052;SDS011;57398;52.032;4.376;2023-07-22T00:14:26;11.20;;;4.57;;
70052;SDS011;57398;52.032;4.376;2023-07-22T00:17:18;11.50;;;3.95;;
70052;SDS011;57398;52.032;4.376;2023-07-22T00:20:08;10.68;;;4.35;;
70052;SDS011;57398;52.032;4.376;2023-07-22T00:22:58;10.15;;;3.60;;
70052;SDS011;57398;52.032;4.376;2023-07-22T00:25:46;11.27;;;4.37;;
70052;SDS011;57398;52.032;4.376;2023-07-22T00:28:34;9.90;;;3.97;;
70052;SDS011;57398;52.032;4.376;2023-07-22T00:31:22;9.40;;;4.07;;
70052;SDS011;57398;52.032;4.376;2023-07-22T00:34:13;10.80;;;4.13;;
70052;SDS011;57398;52.032;4.376;2023-07-22T00:37:01;10.55;;;4.07;;
70052;SDS011;57398;52.032;4.376;2023-07-22T00:39:49;8.87;;;3.30;;
70052;SDS011;57398;52.032;4.376;2023-07-22T00:42:37;8.68;;;3.50;;
70052;SDS011;57398;52.032;4.376;2023-07-22T00:45:25;10.63;;;3.70;;
70052;SDS011;57398;52.032;4.376;2023-07-22T00:48:14;9.63;;;3.38;;
70052;SDS011;57398;52.032;4.376;2023-07-22T00:51:04;9.00;;;3.70;;
70052;SDS011;57398;52.032;4.376;2023-07-22T00:53:53;9.33;;;3.10;;
70052;SDS011;57398;52.032;4.376;2023-07-22T00:56:41;8.15;;;3.30;;
70052;SDS011;57398;52.032;4.376;2023-07-22T00:59:31;8.45;;;3.35;;
70052;SDS011;57398;52.032;4.376;2023-07-22T01:02:19;8.90;;;3.50;;
70052;SDS011;57398;52.032;4.376;2023-07-22T01:05:07;9.10;;;3.75;;
70052;SDS011;57398;52.032;4.376;2023-07-22T01:07:59;8.77;;;3.23;;
70052;SDS011;57398;52.032;4.376;2023-07-22T01:10:47;10.68;;;3.40;;
70052;SDS011;57398;52.032;4.376;2023-07-22T01:13:35;8.60;;;3.70;;
70052;SDS011;57398;52.032;4.376;2023-07-22T01:16:24;10.60;;;3.72;;
70052;SDS011;57398;52.032;4.376;2023-07-22T01:19:14;7.53;;;3.13;;
70052;SDS011;57398;52.032;4.376;2023-07-22T01:22:06;10.50;;;3.40;;
70052;SDS011;57398;52.032;4.376;2023-07-22T01:24:56;8.98;;;3.67;;
70052;SDS011;57398;52.032;4.376;2023-07-22T01:27:44;8.98;;;3.13;;
70052;SDS011;57398;52.032;4.376;2023-07-22T01:30:32;8.75;;;3.38;;
70052;SDS011;57398;52.032;4.376;2023-07-22T01:33:20;8.13;;;3.22;;
70052;SDS011;57398;52.032;4.376;2023-07-22T01:36:09;7.10;;;3.00;;
70052;SDS011;57398;52.032;4.376;2023-07-22T01:38:57;9.15;;;3.22;;
70052;SDS011;57398;52.032;4.376;2023-07-22T01:41:48;7.40;;;3.10;;
70052;SDS011;57398;52.032;4.376;2023-07-22T01:44:36;9.45;;;3.17;;
70052;SDS011;57398;52.032;4.376;2023-07-22T01:47:27;8.55;;;2.97;;
70052;SDS011;57398;52.032;4.376;2023-07-22T01:50:15;7.50;;;3.20;;
70052;SDS011;57398;52.032;4.376;2023-07-22T01:53:05;8.43;;;3.30;;
70052;SDS011;57398;52.032;4.376;2023-07-22T01:55:54;7.63;;;2.90;;
70052;SDS011;57398;52.032;4.376;2023-07-22T01:58:44;8.35;;;3.15;;
70052;SDS011;57398;52.032;4.376;2023-07-22T02:01:32;8.93;;;3.40;;
70052;SDS011;57398;52.032;4.376;2023-07-22T02:04:20;8.63;;;3.07;;
70052;SDS011;57398;52.032;4.376;2023-07-22T02:07:08;8.18;;;3.17;;
70052;SDS011;57398;52.032;4.376;2023-07-22T02:09:57;6.32;;;2.78;;
70052;SDS011;57398;52.032;4.376;2023-07-22T02:12:45;6.82;;;3.30;;
70052;SDS011;57398;52.032;4.376;2023-07-22T02:15:34;7.45;;;3.42;;
70052;SDS011;57398;52.032;4.376;2023-07-22T02:18:23;9.03;;;3.13;;
70052;SDS011;57398;52.032;4.376;2023-07-22T02:21:11;7.57;;;2.88;;
70052;SDS011;57398;52.032;4.376;2023-07-22T02:24:00;6.72;;;2.67;;
70052;SDS011;57398;52.032;4.376;2023-07-22T02:26:48;7.18;;;2.70;;
70052;SDS011;57398;52.032;4.376;2023-07-22T02:29:37;8.07;;;2.95;;
70052;SDS011;57398;52.032;4.376;2023-07-22T02:32:27;6.37;;;2.73;;
70052;SDS011;57398;52.032;4.376;2023-07-22T02:35:15;6.82;;;2.85;;
70052;SDS011;57398;52.032;4.376;2023-07-22T02:38:04;7.03;;;3.22;;
70052;SDS011;57398;52.032;4.376;2023-07-22T02:40:52;7.35;;;2.92;;
70052;SDS011;57398;52.032;4.376;2023-07-22T02:43:40;6.95;;;2.95;;
70052;SDS011;57398;52.032;4.376;2023-07-22T02:46:29;6.63;;;3.00;;
70052;SDS011;57398;52.032;4.376;2023-07-22T02:49:19;6.60;;;3.00;;
70052;SDS011;57398;52.032;4.376;2023-07-22T02:52:07;7.30;;;2.85;;
70052;SDS011;57398;52.032;4.376;2023-07-22T02:55:06;7.50;;;2.97;;
70052;SDS011;57398;52.032;4.376;2023-07-22T02:57:57;8.25;;;2.90;;
70052;SDS011;57398;52.032;4.376;2023-07-22T03:00:45;7.60;;;3.00;;
70052;SDS011;57398;52.032;4.376;2023-07-22T03:03:34;6.65;;;3.00;;
70052;SDS011;57398;52.032;4.376;2023-07-22T03:06:23;6.97;;;3.15;;
70052;SDS011;57398;52.032;4.376;2023-07-22T03:09:13;8.30;;;3.20;;
70052;SDS011;57398;52.032;4.376;2023-07-22T03:12:01;7.45;;;3.20;;
70052;SDS011;57398;52.032;4.376;2023-07-22T03:14:50;7.57;;;2.83;;
70052;SDS011;57398;52.032;4.376;2023-07-22T03:17:38;6.30;;;2.65;;
70052;SDS011;57398;52.032;4.376;2023-07-22T03:20:28;7.20;;;3.00;;
70052;SDS011;57398;52.032;4.376;2023-07-22T03:23:19;6.80;;;2.90;;
70052;SDS011;57398;52.032;4.376;2023-07-22T03:26:07;6.57;;;3.00;;
70052;SDS011;57398;52.032;4.376;2023-07-22T03:28:55;8.43;;;3.00;;
70052;SDS011;57398;52.032;4.376;2023-07-22T03:31:44;6.70;;;2.58;;
70052;SDS011;57398;52.032;4.376;2023-07-22T03:34:32;7.20;;;3.20;;
70052;SDS011;57398;52.032;4.376;2023-07-22T03:37:20;7.72;;;3.22;;
70052;SDS011;57398;52.032;4.376;2023-07-22T03:40:10;7.25;;;3.20;;
70052;SDS011;57398;52.032;4.376;2023-07-22T03:43:04;6.43;;;2.93;;
70052;SDS011;57398;52.032;4.376;2023-07-22T03:45:53;6.60;;;2.75;;
70052;SDS011;57398;52.032;4.376;2023-07-22T03:48:41;6.75;;;2.80;;
70052;SDS011;57398;52.032;4.376;2023-07-22T03:51:29;7.95;;;3.03;;
70052;SDS011;57398;52.032;4.376;2023-07-22T03:54:17;6.28;;;2.97;;
70052;SDS011;57398;52.032;4.376;2023-07-22T03:57:07;6.03;;;2.70;;
70052;SDS011;57398;52.032;4.376;2023-07-22T03:59:55;8.10;;;3.40;;
70052;SDS011;57398;52.032;4.376;2023-07-22T04:02:43;7.10;;;2.50;;
70052;SDS011;57398;52.032;4.376;2023-07-22T04:05:32;7.55;;;2.88;;
70052;SDS011;57398;52.032;4.376;2023-07-22T04:08:20;8.18;;;3.13;;
70052;SDS011;57398;52.032;4.376;2023-07-22T04:11:08;8.47;;;3.20;;
70052;SDS011;57398;52.032;4.376;2023-07-22T04:13:58;8.65;;;3.50;;
70052;SDS011;57398;52.032;4.376;2023-07-22T04:16:46;11.02;;;3.65;;
70052;SDS011;57398;52.032;4.376;2023-07-22T04:19:34;10.35;;;3.92;;
70052;SDS011;57398;52.032;4.376;2023-07-22T04:22:23;10.68;;;4.30;;
70052;SDS011;57398;52.032;4.376;2023-07-22T04:25:11;10.83;;;4.07;;
70052;SDS011;57398;52.032;4.376;2023-07-22T04:28:00;12.98;;;4.85;;
70052;SDS011;57398;52.032;4.376;2023-07-22T04:30:55;15.27;;;5.05;;
70052;SDS011;57398;52.032;4.376;2023-07-22T04:33:45;17.85;;;5.40;;
70052;SDS011;57398;52.032;4.376;2023-07-22T04:36:33;17.38;;;5.63;;
70052;SDS011;57398;52.032;4.376;2023-07-22T04:39:21;17.23;;;5.87;;
70052;SDS011;57398;52.032;4.376;2023-07-22T04:42:09;16.67;;;5.28;;
70052;SDS011;57398;52.032;4.376;2023-07-22T04:44:58;16.10;;;5.22;;
70052;SDS011;57398;52.032;4.376;2023-07-22T04:47:47;19.70;;;5.55;;
70052;SDS011;57398;52.032;4.376;2023-07-22T04:50:36;13.15;;;5.18;;
70052;SDS011;57398;52.032;4.376;2023-07-22T04:53:27;18.67;;;6.60;;
70052;SDS011;57398;52.032;4.376;2023-07-22T04:56:15;18.67;;;5.68;;
70052;SDS011;57398;52.032;4.376;2023-07-22T04:59:03;23.08;;;6.50;;
70052;SDS011;57398;52.032;4.376;2023-07-22T05:01:52;18.60;;;6.38;;
70052;SDS011;57398;52.032;4.376;2023-07-22T05:04:44;16.30;;;6.32;;
70052;SDS011;57398;52.032;4.376;2023-07-22T05:07:33;15.53;;;6.37;;
70052;SDS011;57398;52.032;4.376;2023-07-22T05:10:21;17.65;;;6.47;;
70052;SDS011;57398;52.032;4.376;2023-07-22T05:13:09;20.33;;;6.32;;
70052;SDS011;57398;52.032;4.376;2023-07-22T05:15:57;20.65;;;7.05;;
70052;SDS011;57398;52.032;4.376;2023-07-22T05:18:45;19.90;;;6.72;;
70052;SDS011;57398;52.032;4.376;2023-07-22T05:21:35;19.43;;;7.43;;
70052;SDS011;57398;52.032;4.376;2023-07-22T05:24:23;19.75;;;6.82;;
70052;SDS011;57398;52.032;4.376;2023-07-22T05:27:11;21.42;;;7.63;;
70052;SDS011;57398;52.032;4.376;2023-07-22T05:29:59;21.95;;;7.43;;
70052;SDS011;57398;52.032;4.376;2023-07-22T05:32:47;20.45;;;7.25;;
70052;SDS011;57398;52.032;4.376;2023-07-22T05:35:39;19.63;;;8.10;;
70052;SDS011;57398;52.032;4.376;2023-07-22T05:38:29;18.88;;;7.55;;
70052;SDS011;57398;52.032;4.376;2023-07-22T05:41:18;20.25;;;7.78;;
70052;SDS011;57398;52.032;4.376;2023-07-22T05:44:06;19.10;;;6.78;;
70052;SDS011;57398;52.032;4.376;2023-07-22T05:46:54;21.48;;;7.75;;
70052;SDS011;57398;52.032;4.376;2023-07-22T05:49:42;26.30;;;7.30;;
70052;SDS011;57398;52.032;4.376;2023-07-22T05:52:31;19.90;;;7.20;;
70052;SDS011;57398;52.032;4.376;2023-07-22T05:55:20;17.23;;;7.03;;
70052;SDS011;57398;52.032;4.376;2023-07-22T05:58:14;19.67;;;6.88;;
70052;SDS011;57398;52.032;4.376;2023-07-22T06:01:04;15.02;;;6.95;;
70052;SDS011;57398;52.032;4.376;2023-07-22T06:03:52;18.13;;;6.97;;
70052;SDS011;57398;52.032;4.376;2023-07-22T06:06:40;21.40;;;6.97;;
70052;SDS011;57398;52.032;4.376;2023-07-22T06:09:28;16.50;;;6.43;;
70052;SDS011;57398;52.032;4.376;2023-07-22T06:12:18;15.55;;;6.60;;
70052;SDS011;57398;52.032;4.376;2023-07-22T06:15:07;17.77;;;6.40;;
70052;SDS011;57398;52.032;4.376;2023-07-22T06:17:56;16.70;;;6.17;;
70052;SDS011;57398;52.032;4.376;2023-07-22T06:20:44;17.75;;;6.43;;
70052;SDS011;57398;52.032;4.376;2023-07-22T06:23:32;15.02;;;5.57;;
70052;SDS011;57398;52.032;4.376;2023-07-22T06:26:20;17.00;;;6.10;;
70052;SDS011;57398;52.032;4.376;2023-07-22T06:29:11;15.07;;;6.10;;
70052;SDS011;57398;52.032;4.376;2023-07-22T06:31:59;16.77;;;5.60;;
70052;SDS011;57398;52.032;4.376;2023-07-22T06:34:47;15.55;;;5.68;;
70052;SDS011;57398;52.032;4.376;2023-07-22T06:37:35;15.30;;;5.85;;
70052;SDS011;57398;52.032;4.376;2023-07-22T06:40:24;17.13;;;5.65;;
70052;SDS011;57398;52.032;4.376;2023-07-22T06:43:12;12.65;;;5.18;;
70052;SDS011;57398;52.032;4.376;2023-07-22T06:46:01;17.93;;;5.57;;
70052;SDS011;57398;52.032;4.376;2023-07-22T06:48:49;15.70;;;5.53;;
70052;SDS011;57398;52.032;4.376;2023-07-22T06:51:38;17.83;;;5.63;;
70052;SDS011;57398;52.032;4.376;2023-07-22T06:54:26;16.60;;;5.38;;
70052;SDS011;57398;52.032;4.376;2023-07-22T06:57:14;14.18;;;5.15;;
70052;SDS011;57398;52.032;4.376;2023-07-22T07:00:03;14.17;;;4.93;;
70052;SDS011;57398;52.032;4.376;2023-07-22T07:02:53;12.45;;;4.60;;
70052;SDS011;57398;52.032;4.376;2023-07-22T07:05:42;14.10;;;5.05;;
70052;SDS011;57398;52.032;4.376;2023-07-22T07:08:30;15.23;;;4.57;;
70052;SDS011;57398;52.032;4.376;2023-07-22T07:11:19;14.10;;;4.80;;
70052;SDS011;57398;52.032;4.376;2023-07-22T07:14:07;15.00;;;6.27;;
70052;SDS011;57398;52.032;4.376;2023-07-22T07:16:55;13.75;;;5.05;;
70052;SDS011;57398;52.032;4.376;2023-07-22T07:19:44;16.35;;;5.45;;
70052;SDS011;57398;52.032;4.376;2023-07-22T07:22:33;12.57;;;4.97;;
70052;SDS011;57398;52.032;4.376;2023-07-22T07:25:21;13.48;;;5.22;;
70052;SDS011;57398;52.032;4.376;2023-07-22T07:28:09;14.43;;;5.30;;
70052;SDS011;57398;52.032;4.376;2023-07-22T07:30:58;11.75;;;5.10;;
70052;SDS011;57398;52.032;4.376;2023-07-22T07:33:46;9.77;;;4.72;;
70052;SDS011;57398;52.032;4.376;2023-07-22T07:36:35;12.82;;;4.38;;
70052;SDS011;57398;52.032;4.376;2023-07-22T07:39:24;12.07;;;4.50;;
70052;SDS011;57398;52.032;4.376;2023-07-22T07:42:12;12.93;;;4.70;;
70052;SDS011;57398;52.032;4.376;2023-07-22T07:45:00;11.00;;;4.30;;
70052;SDS011;57398;52.032;4.376;2023-07-22T07:47:48;15.10;;;5.10;;
70052;SDS011;57398;52.032;4.376;2023-07-22T07:50:37;11.65;;;3.97;;
70052;SDS011;57398;52.032;4.376;2023-07-22T07:53:27;11.45;;;4.40;;
70052;SDS011;57398;52.032;4.376;2023-07-22T07:56:16;12.43;;;4.68;;
70052;SDS011;57398;52.032;4.376;2023-07-22T07:59:05;10.93;;;4.80;;
70052;SDS011;57398;52.032;4.376;2023-07-22T08:01:55;10.65;;;5.00;;
70052;SDS011;57398;52.032;4.376;2023-07-22T08:04:44;10.70;;;4.40;;
70052;SDS011;57398;52.032;4.376;2023-07-22T08:07:33;11.15;;;4.30;;
70052;SDS011;57398;52.032;4.376;2023-07-22T08:10:22;10.73;;;4.28;;
70052;SDS011;57398;52.032;4.376;2023-07-22T08:13:11;12.83;;;4.43;;
70052;SDS011;57398;52.032;4.376;2023-07-22T08:16:01;12.98;;;4.35;;
70052;SDS011;57398;52.032;4.376;2023-07-22T08:18:49;9.70;;;3.85;;
70052;SDS011;57398;52.032;4.376;2023-07-22T08:21:38;10.07;;;3.47;;
70052;SDS011;57398;52.032;4.376;2023-07-22T08:24:26;12.48;;;3.63;;
70052;SDS011;57398;52.032;4.376;2023-07-22T08:27:15;10.33;;;3.50;;
70052;SDS011;57398;52.032;4.376;2023-07-22T08:30:04;11.32;;;3.78;;
70052;SDS011;57398;52.032;4.376;2023-07-22T08:32:53;7.88;;;3.13;;
70052;SDS011;57398;52.032;4.376;2023-07-22T08:35:42;8.40;;;3.67;;
70052;SDS011;57398;52.032;4.376;2023-07-22T08:38:32;8.57;;;3.35;;
70052;SDS011;57398;52.032;4.376;2023-07-22T08:41:20;10.57;;;3.10;;
70052;SDS011;57398;52.032;4.376;2023-07-22T08:44:13;7.47;;;3.08;;
70052;SDS011;57398;52.032;4.376;2023-07-22T08:47:03;6.28;;;2.60;;
70052;SDS011;57398;52.032;4.376;2023-07-22T08:49:57;6.78;;;2.58;;
70052;SDS011;57398;52.032;4.376;2023-07-22T08:52:48;7.93;;;2.70;;
70052;SDS011;57398;52.032;4.376;2023-07-22T08:55:37;5.30;;;2.57;;
70052;SDS011;57398;52.032;4.376;2023-07-22T08:58:26;6.28;;;2.45;;
70052;SDS011;57398;52.032;4.376;2023-07-22T09:01:17;5.75;;;2.70;;
70052;SDS011;57398;52.032;4.376;2023-07-22T09:04:07;9.00;;;2.70;;
70052;SDS011;57398;52.032;4.376;2023-07-22T09:06:55;7.22;;;2.40;;
70052;SDS011;57398;52.032;4.376;2023-07-22T09:09:45;5.27;;;2.60;;
70052;SDS011;57398;52.032;4.376;2023-07-22T09:12:34;5.68;;;2.20;;
70052;SDS011;57398;52.032;4.376;2023-07-22T09:15:26;5.32;;;2.28;;
70052;SDS011;57398;52.032;4.376;2023-07-22T09:18:16;5.88;;;2.38;;
70052;SDS011;57398;52.032;4.376;2023-07-22T09:21:04;4.88;;;2.28;;
70052;SDS011;57398;52.032;4.376;2023-07-22T09:23:52;7.13;;;2.60;;
70052;SDS011;57398;52.032;4.376;2023-07-22T09:26:40;6.40;;;2.70;;
70052;SDS011;57398;52.032;4.376;2023-07-22T09:29:32;7.00;;;2.47;;
70052;SDS011;57398;52.032;4.376;2023-07-22T09:32:29;6.55;;;2.58;;
70052;SDS011;57398;52.032;4.376;2023-07-22T09:35:25;5.90;;;2.55;;
70052;SDS011;57398;52.032;4.376;2023-07-22T09:38:15;5.77;;;2.90;;
70052;SDS011;57398;52.032;4.376;2023-07-22T09:41:10;7.38;;;2.70;;
70052;SDS011;57398;52.032;4.376;2023-07-22T09:44:01;8.43;;;3.05;;
70052;SDS011;57398;52.032;4.376;2023-07-22T09:46:50;7.15;;;3.40;;
70052;SDS011;57398;52.032;4.376;2023-07-22T09:49:39;8.45;;;3.17;;
70052;SDS011;57398;52.032;4.376;2023-07-22T09:52:30;6.53;;;2.87;;
70052;SDS011;57398;52.032;4.376;2023-07-22T09:55:19;6.80;;;3.35;;
70052;SDS011;57398;52.032;4.376;2023-07-22T09:58:08;9.60;;;3.10;;
70052;SDS011;57398;52.032;4.376;2023-07-22T10:01:00;7.55;;;2.88;;
70052;SDS011;57398;52.032;4.376;2023-07-22T10:03:50;7.70;;;3.17;;
70052;SDS011;57398;52.032;4.376;2023-07-22T10:06:42;10.07;;;3.23;;
70052;SDS011;57398;52.032;4.376;2023-07-22T10:09:31;8.73;;;3.55;;
70052;SDS011;57398;52.032;4.376;2023-07-22T10:12:20;7.68;;;3.10;;
70052;SDS011;57398;52.032;4.376;2023-07-22T10:15:09;8.57;;;2.70;;
70052;SDS011;57398;52.032;4.376;2023-07-22T10:17:59;7.40;;;2.80;;
70052;SDS011;57398;52.032;4.376;2023-07-22T10:20:48;5.60;;;2.20;;
70052;SDS011;57398;52.032;4.376;2023-07-22T10:23:38;6.32;;;2.55;;
70052;SDS011;57398;52.032;4.376;2023-07-22T10:26:29;7.35;;;2.53;;
70052;SDS011;57398;52.032;4.376;2023-07-22T10:29:33;5.78;;;2.30;;
70052;SDS011;57398;52.032;4.376;2023-07-22T10:32:21;11.15;;;2.03;;
70052;SDS011;57398;52.032;4.376;2023-07-22T10:35:10;5.37;;;2.00;;
70052;SDS011;57398;52.032;4.376;2023-07-22T10:38:06;4.65;;;1.65;;
70052;SDS011;57398;52.032;4.376;2023-07-22T10:40:54;4.78;;;2.10;;
70052;SDS011;57398;52.032;4.376;2023-07-22T10:43:54;4.80;;;1.60;;
70052;SDS011;57398;52.032;4.376;2023-07-22T10:46:43;4.82;;;1.60;;
70052;SDS011;57398;52.032;4.376;2023-07-22T10:49:46;3.67;;;1.50;;
70052;SDS011;57398;52.032;4.376;2023-07-22T10:52:37;4.20;;;1.50;;
70052;SDS011;57398;52.032;4.376;2023-07-22T10:55:28;4.38;;;1.70;;
70052;SDS011;57398;52.032;4.376;2023-07-22T10:58:16;3.90;;;1.08;;
70052;SDS011;57398;52.032;4.376;2023-07-22T11:01:30;3.72;;;1.10;;
70052;SDS011;57398;52.032;4.376;2023-07-22T11:04:23;4.40;;;1.37;;
70052;SDS011;57398;52.032;4.376;2023-07-22T11:07:32;4.05;;;1.50;;
70052;SDS011;57398;52.032;4.376;2023-07-22T11:10:30;4.93;;;1.33;;
70052;SDS011;57398;52.032;4.376;2023-07-22T11:13:18;3.67;;;1.40;;
70052;SDS011;57398;52.032;4.376;2023-07-22T11:16:09;4.10;;;1.60;;
70052;SDS011;57398;52.032;4.376;2023-07-22T11:18:59;4.90;;;1.70;;
70052;SDS011;57398;52.032;4.376;2023-07-22T11:21:48;4.65;;;1.70;;
70052;SDS011;57398;52.032;4.376;2023-07-22T11:24:36;3.50;;;1.13;;
70052;SDS011;57398;52.032;4.376;2023-07-22T11:27:24;4.35;;;1.42;;
70052;SDS011;57398;52.032;4.376;2023-07-22T11:30:13;3.85;;;1.23;;
70052;SDS011;57398;52.032;4.376;2023-07-22T11:33:01;3.47;;;1.10;;
70052;SDS011;57398;52.032;4.376;2023-07-22T11:35:51;3.63;;;1.27;;
70052;SDS011;57398;52.032;4.376;2023-07-22T11:38:39;5.43;;;1.30;;
70052;SDS011;57398;52.032;4.376;2023-07-22T11:41:28;4.50;;;1.38;;
70052;SDS011;57398;52.032;4.376;2023-07-22T11:44:20;3.90;;;1.27;;
70052;SDS011;57398;52.032;4.376;2023-07-22T11:47:10;4.83;;;1.20;;
70052;SDS011;57398;52.032;4.376;2023-07-22T11:49:59;4.53;;;1.30;;
70052;SDS011;57398;52.032;4.376;2023-07-22T11:52:51;4.30;;;1.42;;
70052;SDS011;57398;52.032;4.376;2023-07-22T11:55:39;3.63;;;1.20;;
70052;SDS011;57398;52.032;4.376;2023-07-22T11:58:27;3.63;;;1.15;;
70052;SDS011;57398;52.032;4.376;2023-07-22T12:01:17;4.70;;;1.23;;
70052;SDS011;57398;52.032;4.376;2023-07-22T12:04:09;3.53;;;0.90;;
70052;SDS011;57398;52.032;4.376;2023-07-22T12:06:58;4.38;;;1.08;;
70052;SDS011;57398;52.032;4.376;2023-07-22T12:09:48;3.72;;;1.17;;
70052;SDS011;57398;52.032;4.376;2023-07-22T12:12:37;3.63;;;1.20;;
70052;SDS011;57398;52.032;4.376;2023-07-22T12:15:28;3.87;;;1.23;;
70052;SDS011;57398;52.032;4.376;2023-07-22T12:18:16;3.45;;;1.10;;
70052;SDS011;57398;52.032;4.376;2023-07-22T12:21:04;5.50;;;1.40;;
70052;SDS011;57398;52.032;4.376;2023-07-22T12:23:52;4.10;;;1.38;;
70052;SDS011;57398;52.032;4.376;2023-07-22T12:26:42;3.28;;;1.02;;
70052;SDS011;57398;52.032;4.376;2023-07-22T12:29:31;3.93;;;1.20;;
70052;SDS011;57398;52.032;4.376;2023-07-22T12:32:19;4.95;;;1.20;;
70052;SDS011;57398;52.032;4.376;2023-07-22T12:35:08;3.97;;;1.17;;
70052;SDS011;57398;52.032;4.376;2023-07-22T12:37:56;3.42;;;1.13;;
70052;SDS011;57398;52.032;4.376;2023-07-22T12:40:44;3.70;;;1.15;;
70052;SDS011;57398;52.032;4.376;2023-07-22T12:43:34;4.23;;;1.20;;
70052;SDS011;57398;52.032;4.376;2023-07-22T12:46:22;7.50;;;1.60;;
70052;SDS011;57398;52.032;4.376;2023-07-22T12:49:11;4.65;;;1.27;;
70052;SDS011;57398;52.032;4.376;2023-07-22T12:51:59;3.92;;;1.20;;
70052;SDS011;57398;52.032;4.376;2023-07-22T12:54:51;4.15;;;1.20;;
70052;SDS011;57398;52.032;4.376;2023-07-22T12:57:39;4.07;;;1.40;;
70052;SDS011;57398;52.032;4.376;2023-07-22T13:00:28;4.80;;;1.00;;
70052;SDS011;57398;52.032;4.376;2023-07-22T13:03:17;4.97;;;1.27;;
70052;SDS011;57398;52.032;4.376;2023-07-22T13:06:05;4.45;;;1.20;;
70052;SDS011;57398;52.032;4.376;2023-07-22T13:08:53;3.22;;;1.10;;
70052;SDS011;57398;52.032;4.376;2023-07-22T13:11:41;3.40;;;1.10;;
70052;SDS011;57398;52.032;4.376;2023-07-22T13:14:30;4.70;;;1.20;;
70052;SDS011;57398;52.032;4.376;2023-07-22T13:17:19;4.35;;;1.05;;
70052;SDS011;57398;52.032;4.376;2023-07-22T13:20:08;4.53;;;1.40;;
70052;SDS011;57398;52.032;4.376;2023-07-22T13:22:58;3.50;;;1.17;;
70052;SDS011;57398;52.032;4.376;2023-07-22T13:25:46;4.83;;;1.27;;
70052;SDS011;57398;52.032;4.376;2023-07-22T13:28:34;3.83;;;1.10;;
70052;SDS011;57398;52.032;4.376;2023-07-22T13:31:22;4.75;;;1.35;;
70052;SDS011;57398;52.032;4.376;2023-07-22T13:34:14;3.45;;;1.23;;
70052;SDS011;57398;52.032;4.376;2023-07-22T13:37:03;5.35;;;1.35;;
70052;SDS011;57398;52.032;4.376;2023-07-22T13:39:52;3.87;;;1.30;;
70052;SDS011;57398;52.032;4.376;2023-07-22T13:42:42;4.47;;;1.30;;
70052;SDS011;57398;52.032;4.376;2023-07-22T13:45:30;4.22;;;1.15;;
70052;SDS011;57398;52.032;4.376;2023-07-22T13:48:18;6.22;;;1.60;;
70052;SDS011;57398;52.032;4.376;2023-07-22T13:51:07;4.43;;;1.50;;
70052;SDS011;57398;52.032;4.376;2023-07-22T13:53:56;3.63;;;1.27;;
70052;SDS011;57398;52.032;4.376;2023-07-22T13:56:45;4.78;;;1.27;;
70052;SDS011;57398;52.032;4.376;2023-07-22T13:59:34;4.85;;;1.60;;
70052;SDS011;57398;52.032;4.376;2023-07-22T14:02:22;4.35;;;1.30;;
70052;SDS011;57398;52.032;4.376;2023-07-22T14:05:10;5.00;;;1.50;;
70052;SDS011;57398;52.032;4.376;2023-07-22T14:08:00;5.33;;;1.57;;
70052;SDS011;57398;52.032;4.376;2023-07-22T14:10:48;5.63;;;1.67;;
70052;SDS011;57398;52.032;4.376;2023-07-22T14:13:36;5.25;;;1.48;;
70052;SDS011;57398;52.032;4.376;2023-07-22T14:16:24;6.47;;;1.45;;
70052;SDS011;57398;52.032;4.376;2023-07-22T14:19:12;4.25;;;1.60;;
70052;SDS011;57398;52.032;4.376;2023-07-22T14:22:00;4.33;;;1.50;;
70052;SDS011;57398;52.032;4.376;2023-07-22T14:24:50;3.63;;;1.17;;
70052;SDS011;57398;52.032;4.376;2023-07-22T14:27:38;4.78;;;1.48;;
70052;SDS011;57398;52.032;4.376;2023-07-22T14:30:27;3.95;;;1.45;;
70052;SDS011;57398;52.032;4.376;2023-07-22T14:33:15;4.57;;;1.40;;
70052;SDS011;57398;52.032;4.376;2023-07-22T14:36:03;4.47;;;1.30;;
70052;SDS011;57398;52.032;4.376;2023-07-22T14:38:52;6.07;;;1.35;;
70052;SDS011;57398;52.032;4.376;2023-07-22T14:41:42;4.63;;;1.58;;
70052;SDS011;57398;52.032;4.376;2023-07-22T14:44:30;4.32;;;1.30;;
70052;SDS011;57398;52.032;4.376;2023-07-22T14:47:19;5.15;;;1.48;;
70052;SDS011;57398;52.032;4.376;2023-07-22T14:50:08;3.90;;;1.23;;
70052;SDS011;57398;52.032;4.376;2023-07-22T14:52:56;4.50;;;1.42;;
70052;SDS011;57398;52.032;4.376;2023-07-22T14:55:45;4.43;;;1.48;;
70052;SDS011;57398;52.032;4.376;2023-07-22T14:58:35;4.88;;;1.50;;
70052;SDS011;57398;52.032;4.376;2023-07-22T15:01:23;5.03;;;1.77;;
70052;SDS011;57398;52.032;4.376;2023-07-22T15:04:12;5.90;;;1.60;;
70052;SDS011;57398;52.032;4.376;2023-07-22T15:07:00;5.13;;;1.50;;
70052;SDS011;57398;52.032;4.376;2023-07-22T15:09:51;5.82;;;1.52;;
70052;SDS011;57398;52.032;4.376;2023-07-22T15:12:39;3.50;;;1.20;;
70052;SDS011;57398;52.032;4.376;2023-07-22T15:15:29;4.82;;;1.38;;
70052;SDS011;57398;52.032;4.376;2023-07-22T15:18:17;6.10;;;1.30;;
70052;SDS011;57398;52.032;4.376;2023-07-22T15:21:05;4.53;;;1.40;;
70052;SDS011;57398;52.032;4.376;2023-07-22T15:23:53;5.35;;;1.50;;
70052;SDS011;57398;52.032;4.376;2023-07-22T15:26:42;3.70;;;1.35;;
70052;SDS011;57398;52.032;4.376;2023-07-22T15:29:30;6.40;;;1.75;;
70052;SDS011;57398;52.032;4.376;2023-07-22T15:32:20;3.60;;;1.33;;
70052;SDS011;57398;52.032;4.376;2023-07-22T15:35:08;3.50;;;1.30;;
70052;SDS011;57398;52.032;4.376;2023-07-22T15:37:56;4.90;;;1.48;;
70052;SDS011;57398;52.032;4.376;2023-07-22T15:40:44;5.70;;;1.40;;
70052;SDS011;57398;52.032;4.376;2023-07-22T15:43:32;6.03;;;1.60;;
70052;SDS011;57398;52.032;4.376;2023-07-22T15:46:21;5.43;;;1.50;;
70052;SDS011;57398;52.032;4.376;2023-07-22T15:49:10;5.10;;;1.20;;
70052;SDS011;57398;52.032;4.376;2023-07-22T15:51:58;5.20;;;1.45;;
70052;SDS011;57398;52.032;4.376;2023-07-22T15:54:47;4.88;;;1.27;;
70052;SDS011;57398;52.032;4.376;2023-07-22T15:57:38;7.43;;;1.50;;
70052;SDS011;57398;52.032;4.376;2023-07-22T16:00:27;5.30;;;1.57;;
70052;SDS011;57398;52.032;4.376;2023-07-22T16:03:15;6.13;;;1.90;;
70052;SDS011;57398;52.032;4.376;2023-07-22T16:06:05;4.88;;;1.30;;
70052;SDS011;57398;52.032;4.376;2023-07-22T16:09:08;5.80;;;1.55;;
70052;SDS011;57398;52.032;4.376;2023-07-22T16:11:56;7.28;;;1.58;;
70052;SDS011;57398;52.032;4.376;2023-07-22T16:14:44;5.30;;;1.23;;
70052;SDS011;57398;52.032;4.376;2023-07-22T16:17:33;6.88;;;1.20;;
70052;SDS011;57398;52.032;4.376;2023-07-22T16:20:23;6.63;;;2.38;;
70052;SDS011;57398;52.032;4.376;2023-07-22T16:23:13;9.63;;;3.47;;
70052;SDS011;57398;52.032;4.376;2023-07-22T16:26:02;13.88;;;9.75;;
70052;SDS011;57398;52.032;4.376;2023-07-22T16:28:50;9.30;;;4.87;;
70052;SDS011;57398;52.032;4.376;2023-07-22T16:31:38;7.28;;;3.90;;
70052;SDS011;57398;52.032;4.376;2023-07-22T16:34:26;14.35;;;8.40;;
70052;SDS011;57398;52.032;4.376;2023-07-22T16:37:15;12.15;;;7.55;;
70052;SDS011;57398;52.032;4.376;2023-07-22T16:40:05;8.27;;;4.22;;
70052;SDS011;57398;52.032;4.376;2023-07-22T16:42:56;6.97;;;3.10;;
70052;SDS011;57398;52.032;4.376;2023-07-22T16:45:44;5.40;;;1.70;;
70052;SDS011;57398;52.032;4.376;2023-07-22T16:48:32;6.20;;;2.60;;
70052;SDS011;57398;52.032;4.376;2023-07-22T16:51:20;8.45;;;3.35;;
70052;SDS011;57398;52.032;4.376;2023-07-22T16:54:10;7.35;;;3.30;;